sensor_id;sensor_type;location;lat;lon;timestamp;P1;durP1;ratioP1;P2;durP2;ratioP2
12005;SDS011;6062;47.294;12.182;2023-04-25T00:01:31;1.40;;;1.10;;
12005;SDS011;6062;47.294;12.182;2023-04-25T00:04:00;1.30;;;1.20;;
12005;SDS011;6062;47.294;12.182;2023-04-25T00:06:27;1.50;;;1.10;;
12005;SDS011;6062;47.294;12.182;2023-04-25T00:08:54;1.23;;;1.13;;
12005;SDS011;6062;47.294;12.182;2023-04-25T00:11:21;1.33;;;1.20;;
12005;SDS011;6062;47.294;12.182;2023-04-25T00:13:48;1.30;;;1.20;;
12005;SDS011;6062;47.294;12.182;2023-04-25T00:16:15;1.40;;;1.30;;
12005;SDS011;6062;47.294;12.182;2023-04-25T00:18:42;1.57;;;1.03;;
12005;SDS011;6062;47.294;12.182;2023-04-25T00:21:08;1.20;;;1.10;;
12005;SDS011;6062;47.294;12.182;2023-04-25T00:23:34;2.33;;;1.40;;
12005;SDS011;6062;47.294;12.182;2023-04-25T00:26:03;1.50;;;1.30;;
12005;SDS011;6062;47.294;12.182;2023-04-25T00:28:29;1.40;;;1.30;;
12005;SDS011;6062;47.294;12.182;2023-04-25T00:30:55;2.17;;;1.33;;
12005;SDS011;6062;47.294;12.182;2023-04-25T00:33:21;2.20;;;1.50;;
12005;SDS011;6062;47.294;12.182;2023-04-25T00:35:46;1.60;;;1.40;;
12005;SDS011;6062;47.294;12.182;2023-04-25T00:38:12;1.73;;;1.60;;
12005;SDS011;6062;47.294;12.182;2023-04-25T00:40:38;1.70;;;1.30;;
12005;SDS011;6062;47.294;12.182;2023-04-25T00:43:04;1.60;;;1.50;;
12005;SDS011;6062;47.294;12.182;2023-04-25T00:45:30;2.33;;;1.50;;
12005;SDS011;6062;47.294;12.182;2023-04-25T00:47:56;1.87;;;1.30;;
12005;SDS011;6062;47.294;12.182;2023-04-25T00:50:22;1.70;;;1.33;;
12005;SDS011;6062;47.294;12.182;2023-04-25T00:52:49;2.17;;;1.80;;
12005;SDS011;6062;47.294;12.182;2023-04-25T00:55:15;1.67;;;1.57;;
12005;SDS011;6062;47.294;12.182;2023-04-25T00:57:41;2.70;;;1.70;;
12005;SDS011;6062;47.294;12.182;2023-04-25T01:00:08;1.53;;;1.37;;
12005;SDS011;6062;47.294;12.182;2023-04-25T01:02:36;1.60;;;1.47;;
12005;SDS011;6062;47.294;12.182;2023-04-25T01:05:02;1.97;;;1.40;;
12005;SDS011;6062;47.294;12.182;2023-04-25T01:07:29;1.70;;;1.57;;
12005;SDS011;6062;47.294;12.182;2023-04-25T01:09:55;1.80;;;1.40;;
12005;SDS011;6062;47.294;12.182;2023-04-25T01:12:21;1.57;;;1.47;;
12005;SDS011;6062;47.294;12.182;2023-04-25T01:14:48;1.60;;;1.50;;
12005;SDS011;6062;47.294;12.182;2023-04-25T01:17:14;2.27;;;1.50;;
12005;SDS011;6062;47.294;12.182;2023-04-25T01:19:42;1.60;;;1.43;;
12005;SDS011;6062;47.294;12.182;2023-04-25T01:22:08;2.20;;;1.40;;
12005;SDS011;6062;47.294;12.182;2023-04-25T01:24:35;1.73;;;1.33;;
12005;SDS011;6062;47.294;12.182;2023-04-25T01:27:02;2.60;;;1.73;;
12005;SDS011;6062;47.294;12.182;2023-04-25T01:29:29;2.43;;;1.70;;
12005;SDS011;6062;47.294;12.182;2023-04-25T01:31:57;1.60;;;1.40;;
12005;SDS011;6062;47.294;12.182;2023-04-25T01:34:24;1.67;;;1.50;;
12005;SDS011;6062;47.294;12.182;2023-04-25T01:36:50;1.47;;;1.37;;
12005;SDS011;6062;47.294;12.182;2023-04-25T01:39:17;2.07;;;1.50;;
12005;SDS011;6062;47.294;12.182;2023-04-25T01:41:43;1.80;;;1.50;;
12005;SDS011;6062;47.294;12.182;2023-04-25T01:44:11;1.97;;;1.60;;
12005;SDS011;6062;47.294;12.182;2023-04-25T01:46:37;1.87;;;1.67;;
12005;SDS011;6062;47.294;12.182;2023-04-25T01:49:03;1.93;;;1.70;;
12005;SDS011;6062;47.294;12.182;2023-04-25T01:51:29;2.33;;;1.70;;
12005;SDS011;6062;47.294;12.182;2023-04-25T01:53:55;2.40;;;1.73;;
12005;SDS011;6062;47.294;12.182;2023-04-25T01:56:22;2.20;;;1.33;;
12005;SDS011;6062;47.294;12.182;2023-04-25T01:58:48;3.00;;;1.87;;
12005;SDS011;6062;47.294;12.182;2023-04-25T02:01:14;2.07;;;1.50;;
12005;SDS011;6062;47.294;12.182;2023-04-25T02:03:39;2.23;;;1.70;;
12005;SDS011;6062;47.294;12.182;2023-04-25T02:06:05;2.37;;;1.73;;
12005;SDS011;6062;47.294;12.182;2023-04-25T02:08:31;2.40;;;1.73;;
12005;SDS011;6062;47.294;12.182;2023-04-25T02:10:57;2.00;;;1.70;;
12005;SDS011;6062;47.294;12.182;2023-04-25T02:13:23;2.00;;;1.80;;
12005;SDS011;6062;47.294;12.182;2023-04-25T02:15:48;3.03;;;1.40;;
12005;SDS011;6062;47.294;12.182;2023-04-25T02:18:14;2.27;;;1.70;;
12005;SDS011;6062;47.294;12.182;2023-04-25T02:20:43;1.97;;;1.50;;
12005;SDS011;6062;47.294;12.182;2023-04-25T02:23:09;1.60;;;1.40;;
12005;SDS011;6062;47.294;12.182;2023-04-25T02:25:34;1.73;;;1.40;;
12005;SDS011;6062;47.294;12.182;2023-04-25T02:28:00;1.57;;;1.43;;
12005;SDS011;6062;47.294;12.182;2023-04-25T02:30:26;3.20;;;1.47;;
12005;SDS011;6062;47.294;12.182;2023-04-25T02:32:52;1.70;;;1.60;;
12005;SDS011;6062;47.294;12.182;2023-04-25T02:35:17;1.70;;;1.60;;
12005;SDS011;6062;47.294;12.182;2023-04-25T02:37:43;1.93;;;1.53;;
12005;SDS011;6062;47.294;12.182;2023-04-25T02:40:09;2.57;;;1.20;;
12005;SDS011;6062;47.294;12.182;2023-04-25T02:42:35;1.43;;;1.20;;
12005;SDS011;6062;47.294;12.182;2023-04-25T02:45:01;1.40;;;1.30;;
12005;SDS011;6062;47.294;12.182;2023-04-25T02:47:28;1.50;;;1.30;;
12005;SDS011;6062;47.294;12.182;2023-04-25T02:49:55;1.30;;;1.20;;
12005;SDS011;6062;47.294;12.182;2023-04-25T02:52:20;1.67;;;1.17;;
12005;SDS011;6062;47.294;12.182;2023-04-25T02:54:46;1.90;;;1.37;;
12005;SDS011;6062;47.294;12.182;2023-04-25T02:57:12;1.80;;;1.50;;
12005;SDS011;6062;47.294;12.182;2023-04-25T02:59:37;1.67;;;1.30;;
12005;SDS011;6062;47.294;12.182;2023-04-25T03:02:03;1.67;;;1.30;;
12005;SDS011;6062;47.294;12.182;2023-04-25T03:04:29;1.50;;;1.40;;
12005;SDS011;6062;47.294;12.182;2023-04-25T03:06:55;2.03;;;1.40;;
12005;SDS011;6062;47.294;12.182;2023-04-25T03:09:20;1.40;;;1.20;;
12005;SDS011;6062;47.294;12.182;2023-04-25T03:11:46;2.53;;;1.33;;
12005;SDS011;6062;47.294;12.182;2023-04-25T03:14:12;1.50;;;1.40;;
12005;SDS011;6062;47.294;12.182;2023-04-25T03:16:39;1.40;;;1.30;;
12005;SDS011;6062;47.294;12.182;2023-04-25T03:19:04;1.33;;;1.20;;
12005;SDS011;6062;47.294;12.182;2023-04-25T03:21:33;1.30;;;1.20;;
12005;SDS011;6062;47.294;12.182;2023-04-25T03:24:01;1.40;;;1.20;;
12005;SDS011;6062;47.294;12.182;2023-04-25T03:26:28;1.50;;;1.40;;
12005;SDS011;6062;47.294;12.182;2023-04-25T03:28:54;1.40;;;1.20;;
12005;SDS011;6062;47.294;12.182;2023-04-25T03:31:20;1.40;;;1.20;;
12005;SDS011;6062;47.294;12.182;2023-04-25T03:33:47;1.30;;;1.20;;
12005;SDS011;6062;47.294;12.182;2023-04-25T03:36:13;1.40;;;1.10;;
12005;SDS011;6062;47.294;12.182;2023-04-25T03:38:38;1.03;;;1.00;;
12005;SDS011;6062;47.294;12.182;2023-04-25T03:41:06;1.37;;;1.10;;
12005;SDS011;6062;47.294;12.182;2023-04-25T03:43:32;1.30;;;1.10;;
12005;SDS011;6062;47.294;12.182;2023-04-25T03:45:58;1.30;;;1.20;;
12005;SDS011;6062;47.294;12.182;2023-04-25T03:48:23;3.10;;;1.30;;
12005;SDS011;6062;47.294;12.182;2023-04-25T03:50:51;1.83;;;1.30;;
12005;SDS011;6062;47.294;12.182;2023-04-25T03:53:17;1.47;;;1.30;;
12005;SDS011;6062;47.294;12.182;2023-04-25T03:55:43;1.20;;;1.10;;
12005;SDS011;6062;47.294;12.182;2023-04-25T03:58:09;1.77;;;1.20;;
12005;SDS011;6062;47.294;12.182;2023-04-25T04:00:35;1.30;;;1.10;;
12005;SDS011;6062;47.294;12.182;2023-04-25T04:03:01;1.30;;;1.10;;
12005;SDS011;6062;47.294;12.182;2023-04-25T04:05:27;1.67;;;1.37;;
12005;SDS011;6062;47.294;12.182;2023-04-25T04:07:53;1.30;;;1.10;;
12005;SDS011;6062;47.294;12.182;2023-04-25T04:10:19;1.23;;;1.13;;
12005;SDS011;6062;47.294;12.182;2023-04-25T04:12:45;0.93;;;0.90;;
12005;SDS011;6062;47.294;12.182;2023-04-25T04:15:11;1.10;;;1.00;;
12005;SDS011;6062;47.294;12.182;2023-04-25T04:17:37;1.37;;;1.00;;
12005;SDS011;6062;47.294;12.182;2023-04-25T04:20:03;1.10;;;1.00;;
12005;SDS011;6062;47.294;12.182;2023-04-25T04:22:30;1.20;;;0.90;;
12005;SDS011;6062;47.294;12.182;2023-04-25T04:24:56;1.20;;;1.10;;
12005;SDS011;6062;47.294;12.182;2023-04-25T04:27:22;1.33;;;1.20;;
12005;SDS011;6062;47.294;12.182;2023-04-25T04:29:48;1.23;;;1.00;;
12005;SDS011;6062;47.294;12.182;2023-04-25T04:32:17;1.20;;;1.10;;
12005;SDS011;6062;47.294;12.182;2023-04-25T04:34:43;1.10;;;1.00;;
12005;SDS011;6062;47.294;12.182;2023-04-25T04:37:09;1.17;;;1.07;;
12005;SDS011;6062;47.294;12.182;2023-04-25T04:39:35;1.20;;;1.10;;
12005;SDS011;6062;47.294;12.182;2023-04-25T04:42:01;1.10;;;0.97;;
12005;SDS011;6062;47.294;12.182;2023-04-25T04:44:28;0.90;;;0.90;;
12005;SDS011;6062;47.294;12.182;2023-04-25T04:46:57;0.87;;;0.87;;
12005;SDS011;6062;47.294;12.182;2023-04-25T04:49:24;1.23;;;1.07;;
12005;SDS011;6062;47.294;12.182;2023-04-25T04:51:50;1.10;;;1.00;;
12005;SDS011;6062;47.294;12.182;2023-04-25T04:54:16;0.90;;;0.90;;
12005;SDS011;6062;47.294;12.182;2023-04-25T04:56:41;0.80;;;0.80;;
12005;SDS011;6062;47.294;12.182;2023-04-25T04:59:08;1.50;;;1.17;;
12005;SDS011;6062;47.294;12.182;2023-04-25T05:01:34;1.03;;;0.90;;
12005;SDS011;6062;47.294;12.182;2023-04-25T05:04:00;0.97;;;0.93;;
12005;SDS011;6062;47.294;12.182;2023-04-25T05:06:27;1.00;;;0.90;;
12005;SDS011;6062;47.294;12.182;2023-04-25T05:08:56;1.30;;;1.10;;
12005;SDS011;6062;47.294;12.182;2023-04-25T05:11:23;1.57;;;1.10;;
12005;SDS011;6062;47.294;12.182;2023-04-25T05:13:51;1.10;;;1.00;;
12005;SDS011;6062;47.294;12.182;2023-04-25T05:16:17;0.90;;;0.90;;
12005;SDS011;6062;47.294;12.182;2023-04-25T05:18:43;1.10;;;1.00;;
12005;SDS011;6062;47.294;12.182;2023-04-25T05:21:09;1.10;;;1.00;;
12005;SDS011;6062;47.294;12.182;2023-04-25T05:23:35;1.20;;;1.10;;
12005;SDS011;6062;47.294;12.182;2023-04-25T05:26:01;1.10;;;1.00;;
12005;SDS011;6062;47.294;12.182;2023-04-25T05:28:26;1.13;;;1.03;;
12005;SDS011;6062;47.294;12.182;2023-04-25T05:30:52;1.17;;;1.07;;
12005;SDS011;6062;47.294;12.182;2023-04-25T05:33:18;0.90;;;0.90;;
12005;SDS011;6062;47.294;12.182;2023-04-25T05:35:44;1.10;;;1.00;;
12005;SDS011;6062;47.294;12.182;2023-04-25T05:38:10;0.90;;;0.90;;
12005;SDS011;6062;47.294;12.182;2023-04-25T05:40:36;1.20;;;1.10;;
12005;SDS011;6062;47.294;12.182;2023-04-25T05:43:02;1.60;;;1.00;;
12005;SDS011;6062;47.294;12.182;2023-04-25T05:45:27;1.07;;;1.00;;
12005;SDS011;6062;47.294;12.182;2023-04-25T05:47:53;1.20;;;1.10;;
12005;SDS011;6062;47.294;12.182;2023-04-25T05:50:19;1.10;;;1.00;;
12005;SDS011;6062;47.294;12.182;2023-04-25T05:52:45;1.20;;;1.10;;
12005;SDS011;6062;47.294;12.182;2023-04-25T05:55:10;1.00;;;0.83;;
12005;SDS011;6062;47.294;12.182;2023-04-25T05:57:36;1.40;;;1.00;;
12005;SDS011;6062;47.294;12.182;2023-04-25T06:00:02;0.83;;;0.83;;
12005;SDS011;6062;47.294;12.182;2023-04-25T06:02:33;1.03;;;0.93;;
12005;SDS011;6062;47.294;12.182;2023-04-25T06:04:59;1.10;;;1.00;;
12005;SDS011;6062;47.294;12.182;2023-04-25T06:07:28;0.80;;;0.80;;
12005;SDS011;6062;47.294;12.182;2023-04-25T06:09:55;1.10;;;1.00;;
12005;SDS011;6062;47.294;12.182;2023-04-25T06:12:21;1.17;;;1.03;;
12005;SDS011;6062;47.294;12.182;2023-04-25T06:14:46;0.97;;;0.87;;
12005;SDS011;6062;47.294;12.182;2023-04-25T06:17:12;0.97;;;0.90;;
12005;SDS011;6062;47.294;12.182;2023-04-25T06:19:38;1.10;;;1.00;;
12005;SDS011;6062;47.294;12.182;2023-04-25T06:22:04;1.00;;;1.00;;
12005;SDS011;6062;47.294;12.182;2023-04-25T06:24:29;0.90;;;0.90;;
12005;SDS011;6062;47.294;12.182;2023-04-25T06:26:55;1.30;;;1.20;;
12005;SDS011;6062;47.294;12.182;2023-04-25T06:29:21;1.10;;;1.00;;
12005;SDS011;6062;47.294;12.182;2023-04-25T06:31:47;1.23;;;1.10;;
12005;SDS011;6062;47.294;12.182;2023-04-25T06:34:13;1.40;;;1.30;;
12005;SDS011;6062;47.294;12.182;2023-04-25T06:36:38;1.10;;;1.00;;
12005;SDS011;6062;47.294;12.182;2023-04-25T06:39:06;0.93;;;0.90;;
12005;SDS011;6062;47.294;12.182;2023-04-25T06:41:32;1.15;;;1.05;;
12005;SDS011;6062;47.294;12.182;2023-04-25T06:43:58;1.10;;;1.00;;
12005;SDS011;6062;47.294;12.182;2023-04-25T06:46:24;1.15;;;1.05;;
12005;SDS011;6062;47.294;12.182;2023-04-25T06:48:49;1.10;;;1.00;;
12005;SDS011;6062;47.294;12.182;2023-04-25T06:51:16;1.20;;;1.10;;
12005;SDS011;6062;47.294;12.182;2023-04-25T06:53:41;1.48;;;1.27;;
12005;SDS011;6062;47.294;12.182;2023-04-25T06:56:07;1.25;;;1.13;;
12005;SDS011;6062;47.294;12.182;2023-04-25T06:58:33;1.35;;;1.13;;
12005;SDS011;6062;47.294;12.182;2023-04-25T07:00:58;1.40;;;1.15;;
12005;SDS011;6062;47.294;12.182;2023-04-25T07:03:24;1.20;;;1.10;;
12005;SDS011;6062;47.294;12.182;2023-04-25T07:05:50;1.20;;;1.10;;
12005;SDS011;6062;47.294;12.182;2023-04-25T07:08:16;1.20;;;1.10;;
12005;SDS011;6062;47.294;12.182;2023-04-25T07:10:42;1.55;;;1.35;;
12005;SDS011;6062;47.294;12.182;2023-04-25T07:13:08;2.33;;;1.40;;
12005;SDS011;6062;47.294;12.182;2023-04-25T07:15:33;1.23;;;1.10;;
12005;SDS011;6062;47.294;12.182;2023-04-25T07:18:00;1.33;;;1.10;;
12005;SDS011;6062;47.294;12.182;2023-04-25T07:20:26;1.13;;;0.98;;
12005;SDS011;6062;47.294;12.182;2023-04-25T07:22:52;1.10;;;1.00;;
12005;SDS011;6062;47.294;12.182;2023-04-25T07:25:19;0.90;;;0.90;;
12005;SDS011;6062;47.294;12.182;2023-04-25T07:27:45;1.00;;;0.95;;
12005;SDS011;6062;47.294;12.182;2023-04-25T07:30:11;1.10;;;0.90;;
12005;SDS011;6062;47.294;12.182;2023-04-25T07:32:37;1.00;;;0.80;;
12005;SDS011;6062;47.294;12.182;2023-04-25T07:35:04;1.10;;;1.00;;
12005;SDS011;6062;47.294;12.182;2023-04-25T07:37:32;0.70;;;0.70;;
12005;SDS011;6062;47.294;12.182;2023-04-25T07:40:02;1.10;;;1.00;;
12005;SDS011;6062;47.294;12.182;2023-04-25T07:42:29;1.10;;;1.00;;
12005;SDS011;6062;47.294;12.182;2023-04-25T07:44:56;1.00;;;1.00;;
12005;SDS011;6062;47.294;12.182;2023-04-25T07:47:22;1.02;;;0.90;;
12005;SDS011;6062;47.294;12.182;2023-04-25T07:49:48;1.40;;;0.85;;
12005;SDS011;6062;47.294;12.182;2023-04-25T07:52:13;1.13;;;1.02;;
12005;SDS011;6062;47.294;12.182;2023-04-25T07:54:39;1.00;;;0.90;;
12005;SDS011;6062;47.294;12.182;2023-04-25T07:57:05;1.00;;;0.90;;
12005;SDS011;6062;47.294;12.182;2023-04-25T07:59:33;1.10;;;1.00;;
12005;SDS011;6062;47.294;12.182;2023-04-25T08:02:00;1.10;;;0.85;;
12005;SDS011;6062;47.294;12.182;2023-04-25T08:04:27;0.88;;;0.88;;
12005;SDS011;6062;47.294;12.182;2023-04-25T08:06:53;2.47;;;1.10;;
12005;SDS011;6062;47.294;12.182;2023-04-25T08:09:19;1.20;;;0.90;;
12005;SDS011;6062;47.294;12.182;2023-04-25T08:11:46;1.02;;;0.75;;
12005;SDS011;6062;47.294;12.182;2023-04-25T08:14:12;1.63;;;0.93;;
12005;SDS011;6062;47.294;12.182;2023-04-25T08:16:38;0.90;;;0.80;;
12005;SDS011;6062;47.294;12.182;2023-04-25T08:19:04;0.80;;;0.80;;
12005;SDS011;6062;47.294;12.182;2023-04-25T08:21:31;0.93;;;0.82;;
12005;SDS011;6062;47.294;12.182;2023-04-25T08:23:57;1.20;;;0.80;;
12005;SDS011;6062;47.294;12.182;2023-04-25T08:26:23;0.70;;;0.70;;
12005;SDS011;6062;47.294;12.182;2023-04-25T08:28:50;1.25;;;0.70;;
12005;SDS011;6062;47.294;12.182;2023-04-25T08:31:16;0.70;;;0.70;;
12005;SDS011;6062;47.294;12.182;2023-04-25T08:33:42;0.73;;;0.73;;
12005;SDS011;6062;47.294;12.182;2023-04-25T08:36:08;1.17;;;0.80;;
12005;SDS011;6062;47.294;12.182;2023-04-25T08:38:34;0.50;;;0.50;;
12005;SDS011;6062;47.294;12.182;2023-04-25T08:41:00;0.60;;;0.60;;
12005;SDS011;6062;47.294;12.182;2023-04-25T08:43:26;0.57;;;0.57;;
12005;SDS011;6062;47.294;12.182;2023-04-25T08:45:54;0.50;;;0.50;;
12005;SDS011;6062;47.294;12.182;2023-04-25T08:48:28;0.43;;;0.43;;
12005;SDS011;6062;47.294;12.182;2023-04-25T08:50:57;0.70;;;0.70;;
12005;SDS011;6062;47.294;12.182;2023-04-25T08:53:31;0.70;;;0.70;;
12005;SDS011;6062;47.294;12.182;2023-04-25T08:55:59;0.65;;;0.65;;
12005;SDS011;6062;47.294;12.182;2023-04-25T08:58:30;0.70;;;0.70;;
12005;SDS011;6062;47.294;12.182;2023-04-25T09:00:57;0.82;;;0.73;;
12005;SDS011;6062;47.294;12.182;2023-04-25T09:03:23;0.65;;;0.65;;
12005;SDS011;6062;47.294;12.182;2023-04-25T09:05:48;0.80;;;0.80;;
12005;SDS011;6062;47.294;12.182;2023-04-25T09:08:15;0.70;;;0.70;;
12005;SDS011;6062;47.294;12.182;2023-04-25T09:10:40;0.80;;;0.80;;
12005;SDS011;6062;47.294;12.182;2023-04-25T09:13:13;0.68;;;0.68;;
12005;SDS011;6062;47.294;12.182;2023-04-25T09:15:49;0.60;;;0.60;;
12005;SDS011;6062;47.294;12.182;2023-04-25T09:18:23;1.00;;;0.77;;
12005;SDS011;6062;47.294;12.182;2023-04-25T09:20:51;1.02;;;0.90;;
12005;SDS011;6062;47.294;12.182;2023-04-25T09:23:18;1.40;;;0.88;;
12005;SDS011;6062;47.294;12.182;2023-04-25T09:25:48;1.38;;;0.90;;
12005;SDS011;6062;47.294;12.182;2023-04-25T09:28:25;0.95;;;0.82;;
12005;SDS011;6062;47.294;12.182;2023-04-25T09:30:56;0.88;;;0.80;;
12005;SDS011;6062;47.294;12.182;2023-04-25T09:33:26;1.20;;;0.90;;
12005;SDS011;6062;47.294;12.182;2023-04-25T09:36:02;2.50;;;1.10;;
12005;SDS011;6062;47.294;12.182;2023-04-25T09:38:41;1.20;;;0.95;;
12005;SDS011;6062;47.294;12.182;2023-04-25T09:41:09;1.17;;;1.02;;
12005;SDS011;6062;47.294;12.182;2023-04-25T09:43:37;1.17;;;0.95;;
12005;SDS011;6062;47.294;12.182;2023-04-25T09:46:07;0.85;;;0.85;;
12005;SDS011;6062;47.294;12.182;2023-04-25T09:48:36;0.82;;;0.82;;
12005;SDS011;6062;47.294;12.182;2023-04-25T09:51:12;0.90;;;0.80;;
12005;SDS011;6062;47.294;12.182;2023-04-25T09:53:39;3.40;;;0.88;;
12005;SDS011;6062;47.294;12.182;2023-04-25T09:56:08;1.58;;;1.00;;
12005;SDS011;6062;47.294;12.182;2023-04-25T09:58:37;1.17;;;0.80;;
12005;SDS011;6062;47.294;12.182;2023-04-25T10:01:06;1.20;;;0.90;;
12005;SDS011;6062;47.294;12.182;2023-04-25T10:03:36;0.82;;;0.82;;
12005;SDS011;6062;47.294;12.182;2023-04-25T10:06:07;1.60;;;0.73;;
12005;SDS011;6062;47.294;12.182;2023-04-25T10:08:44;1.10;;;1.00;;
12005;SDS011;6062;47.294;12.182;2023-04-25T10:11:15;1.75;;;1.00;;
12005;SDS011;6062;47.294;12.182;2023-04-25T10:13:42;1.00;;;0.90;;
12005;SDS011;6062;47.294;12.182;2023-04-25T10:16:10;1.10;;;1.00;;
12005;SDS011;6062;47.294;12.182;2023-04-25T10:18:36;1.90;;;1.13;;
12005;SDS011;6062;47.294;12.182;2023-04-25T10:21:03;1.20;;;1.10;;
12005;SDS011;6062;47.294;12.182;2023-04-25T10:23:31;0.80;;;0.80;;
12005;SDS011;6062;47.294;12.182;2023-04-25T10:25:59;2.33;;;1.00;;
12005;SDS011;6062;47.294;12.182;2023-04-25T10:28:26;1.55;;;0.80;;
12005;SDS011;6062;47.294;12.182;2023-04-25T10:31:03;2.20;;;1.00;;
12005;SDS011;6062;47.294;12.182;2023-04-25T10:33:32;1.30;;;1.15;;
12005;SDS011;6062;47.294;12.182;2023-04-25T10:36:13;1.40;;;1.00;;
12005;SDS011;6062;47.294;12.182;2023-04-25T10:38:43;1.10;;;0.90;;
12005;SDS011;6062;47.294;12.182;2023-04-25T10:41:11;1.35;;;1.13;;
12005;SDS011;6062;47.294;12.182;2023-04-25T10:48:55;1.88;;;0.90;;
12005;SDS011;6062;47.294;12.182;2023-04-25T10:51:26;1.50;;;0.82;;
12005;SDS011;6062;47.294;12.182;2023-04-25T10:53:59;1.20;;;0.93;;
12005;SDS011;6062;47.294;12.182;2023-04-25T10:56:31;1.25;;;0.93;;
12005;SDS011;6062;47.294;12.182;2023-04-25T10:59:10;1.92;;;1.20;;
12005;SDS011;6062;47.294;12.182;2023-04-25T11:02:02;1.45;;;0.95;;
12005;SDS011;6062;47.294;12.182;2023-04-25T11:04:37;1.13;;;0.90;;
12005;SDS011;6062;47.294;12.182;2023-04-25T11:07:22;1.60;;;1.00;;
12005;SDS011;6062;47.294;12.182;2023-04-25T11:10:22;1.63;;;0.90;;
12005;SDS011;6062;47.294;12.182;2023-04-25T11:12:58;1.90;;;0.80;;
12005;SDS011;6062;47.294;12.182;2023-04-25T11:15:25;0.98;;;0.80;;
12005;SDS011;6062;47.294;12.182;2023-04-25T11:17:51;1.05;;;0.93;;
12005;SDS011;6062;47.294;12.182;2023-04-25T11:20:18;2.00;;;1.08;;
12005;SDS011;6062;47.294;12.182;2023-04-25T11:22:44;1.13;;;0.90;;
12005;SDS011;6062;47.294;12.182;2023-04-25T11:25:12;1.48;;;1.00;;
12005;SDS011;6062;47.294;12.182;2023-04-25T11:27:50;1.45;;;0.93;;
12005;SDS011;6062;47.294;12.182;2023-04-25T11:30:17;1.73;;;0.90;;
12005;SDS011;6062;47.294;12.182;2023-04-25T11:32:44;1.63;;;0.90;;
12005;SDS011;6062;47.294;12.182;2023-04-25T11:35:10;1.02;;;0.80;;
12005;SDS011;6062;47.294;12.182;2023-04-25T11:37:38;2.58;;;0.93;;
12005;SDS011;6062;47.294;12.182;2023-04-25T11:40:08;1.58;;;0.90;;
12005;SDS011;6062;47.294;12.182;2023-04-25T11:42:36;2.67;;;1.00;;
12005;SDS011;6062;47.294;12.182;2023-04-25T11:45:03;1.55;;;1.08;;
12005;SDS011;6062;47.294;12.182;2023-04-25T11:47:31;1.17;;;0.90;;
12005;SDS011;6062;47.294;12.182;2023-04-25T11:49:59;0.70;;;0.70;;
12005;SDS011;6062;47.294;12.182;2023-04-25T11:52:38;2.05;;;0.90;;
12005;SDS011;6062;47.294;12.182;2023-04-25T11:55:10;1.15;;;0.82;;
12005;SDS011;6062;47.294;12.182;2023-04-25T11:57:40;1.60;;;0.93;;
12005;SDS011;6062;47.294;12.182;2023-04-25T12:00:18;1.23;;;0.90;;
12005;SDS011;6062;47.294;12.182;2023-04-25T12:02:46;1.95;;;0.70;;
12005;SDS011;6062;47.294;12.182;2023-04-25T12:05:18;1.40;;;0.90;;
12005;SDS011;6062;47.294;12.182;2023-04-25T12:07:45;1.25;;;0.80;;
12005;SDS011;6062;47.294;12.182;2023-04-25T12:10:13;0.98;;;0.88;;
12005;SDS011;6062;47.294;12.182;2023-04-25T12:12:41;0.65;;;0.65;;
12005;SDS011;6062;47.294;12.182;2023-04-25T12:17:47;1.48;;;0.90;;
12005;SDS011;6062;47.294;12.182;2023-04-25T12:20:16;2.08;;;1.10;;
12005;SDS011;6062;47.294;12.182;2023-04-25T12:22:51;3.67;;;1.10;;
12005;SDS011;6062;47.294;12.182;2023-04-25T12:28:16;1.98;;;1.20;;
12005;SDS011;6062;47.294;12.182;2023-04-25T12:33:26;1.10;;;1.00;;
12005;SDS011;6062;47.294;12.182;2023-04-25T12:35:54;1.40;;;1.05;;
12005;SDS011;6062;47.294;12.182;2023-04-25T12:38:26;1.40;;;0.85;;
12005;SDS011;6062;47.294;12.182;2023-04-25T12:40:54;1.55;;;1.10;;
12005;SDS011;6062;47.294;12.182;2023-04-25T12:43:20;1.67;;;1.02;;
12005;SDS011;6062;47.294;12.182;2023-04-25T12:45:53;1.17;;;1.08;;
12005;SDS011;6062;47.294;12.182;2023-04-25T12:48:20;1.65;;;1.17;;
12005;SDS011;6062;47.294;12.182;2023-04-25T12:50:48;1.63;;;1.10;;
12005;SDS011;6062;47.294;12.182;2023-04-25T12:53:16;2.03;;;1.20;;
12005;SDS011;6062;47.294;12.182;2023-04-25T12:55:46;1.20;;;1.10;;
12005;SDS011;6062;47.294;12.182;2023-04-25T12:58:15;1.20;;;1.00;;
12005;SDS011;6062;47.294;12.182;2023-04-25T13:00:43;0.70;;;0.70;;
12005;SDS011;6062;47.294;12.182;2023-04-25T13:03:10;0.70;;;0.70;;
12005;SDS011;6062;47.294;12.182;2023-04-25T13:05:37;0.63;;;0.63;;
12005;SDS011;6062;47.294;12.182;2023-04-25T13:08:04;0.90;;;0.70;;
12005;SDS011;6062;47.294;12.182;2023-04-25T13:10:30;0.80;;;0.73;;
12005;SDS011;6062;47.294;12.182;2023-04-25T13:12:56;0.70;;;0.70;;
12005;SDS011;6062;47.294;12.182;2023-04-25T13:15:22;0.47;;;0.47;;
12005;SDS011;6062;47.294;12.182;2023-04-25T13:17:48;0.40;;;0.40;;
12005;SDS011;6062;47.294;12.182;2023-04-25T13:20:14;0.50;;;0.50;;
12005;SDS011;6062;47.294;12.182;2023-04-25T13:22:40;0.50;;;0.50;;
12005;SDS011;6062;47.294;12.182;2023-04-25T13:25:07;0.80;;;0.60;;
12005;SDS011;6062;47.294;12.182;2023-04-25T13:27:34;0.80;;;0.60;;
12005;SDS011;6062;47.294;12.182;2023-04-25T13:30:01;1.95;;;0.82;;
12005;SDS011;6062;47.294;12.182;2023-04-25T13:32:33;0.80;;;0.80;;
12005;SDS011;6062;47.294;12.182;2023-04-25T13:35:01;0.65;;;0.60;;
12005;SDS011;6062;47.294;12.182;2023-04-25T13:37:29;0.60;;;0.60;;
12005;SDS011;6062;47.294;12.182;2023-04-25T13:39:57;0.60;;;0.60;;
12005;SDS011;6062;47.294;12.182;2023-04-25T13:42:29;0.65;;;0.60;;
12005;SDS011;6062;47.294;12.182;2023-04-25T13:44:55;0.60;;;0.60;;
12005;SDS011;6062;47.294;12.182;2023-04-25T13:47:21;0.70;;;0.60;;
12005;SDS011;6062;47.294;12.182;2023-04-25T13:49:48;1.85;;;0.70;;
12005;SDS011;6062;47.294;12.182;2023-04-25T13:52:14;0.60;;;0.60;;
12005;SDS011;6062;47.294;12.182;2023-04-25T13:54:40;0.70;;;0.70;;
12005;SDS011;6062;47.294;12.182;2023-04-25T13:57:06;0.52;;;0.52;;
12005;SDS011;6062;47.294;12.182;2023-04-25T13:59:31;0.50;;;0.50;;
12005;SDS011;6062;47.294;12.182;2023-04-25T14:01:58;0.73;;;0.70;;
12005;SDS011;6062;47.294;12.182;2023-04-25T14:04:24;0.60;;;0.60;;
12005;SDS011;6062;47.294;12.182;2023-04-25T14:06:50;1.95;;;0.60;;
12005;SDS011;6062;47.294;12.182;2023-04-25T14:09:16;0.90;;;0.80;;
12005;SDS011;6062;47.294;12.182;2023-04-25T14:11:43;0.63;;;0.60;;
12005;SDS011;6062;47.294;12.182;2023-04-25T14:14:09;0.60;;;0.60;;
12005;SDS011;6062;47.294;12.182;2023-04-25T14:16:34;0.70;;;0.70;;
12005;SDS011;6062;47.294;12.182;2023-04-25T14:19:00;0.57;;;0.57;;
12005;SDS011;6062;47.294;12.182;2023-04-25T14:21:27;0.75;;;0.60;;
12005;SDS011;6062;47.294;12.182;2023-04-25T14:23:53;0.60;;;0.60;;
12005;SDS011;6062;47.294;12.182;2023-04-25T14:26:19;0.55;;;0.55;;
12005;SDS011;6062;47.294;12.182;2023-04-25T14:28:45;0.75;;;0.60;;
12005;SDS011;6062;47.294;12.182;2023-04-25T14:31:10;1.15;;;0.70;;
12005;SDS011;6062;47.294;12.182;2023-04-25T14:33:36;0.70;;;0.70;;
12005;SDS011;6062;47.294;12.182;2023-04-25T14:36:04;0.60;;;0.60;;
12005;SDS011;6062;47.294;12.182;2023-04-25T14:38:30;0.73;;;0.68;;
12005;SDS011;6062;47.294;12.182;2023-04-25T14:40:56;1.30;;;0.70;;
12005;SDS011;6062;47.294;12.182;2023-04-25T14:43:22;0.85;;;0.80;;
12005;SDS011;6062;47.294;12.182;2023-04-25T14:45:47;0.88;;;0.80;;
12005;SDS011;6062;47.294;12.182;2023-04-25T14:48:13;6.10;;;0.85;;
12005;SDS011;6062;47.294;12.182;2023-04-25T14:50:40;3.22;;;0.70;;
12005;SDS011;6062;47.294;12.182;2023-04-25T14:53:05;0.40;;;0.40;;
12005;SDS011;6062;47.294;12.182;2023-04-25T14:55:31;0.40;;;0.40;;
12005;SDS011;6062;47.294;12.182;2023-04-25T14:57:57;0.50;;;0.50;;
12005;SDS011;6062;47.294;12.182;2023-04-25T15:00:23;0.40;;;0.40;;
12005;SDS011;6062;47.294;12.182;2023-04-25T15:02:50;0.40;;;0.40;;